sensor_id;sensor_type;location;lat;lon;timestamp;P1;durP1;ratioP1;P2;durP2;ratioP2
16133;SDS011;8172;45.018;5.972;2023-05-18T00:04:34;10.07;;;7.10;;
16133;SDS011;8172;45.018;5.972;2023-05-18T00:09:43;12.90;;;7.40;;
16133;SDS011;8172;45.018;5.972;2023-05-18T00:14:51;34.80;;;9.23;;
16133;SDS011;8172;45.018;5.972;2023-05-18T00:20:01;17.60;;;8.37;;
16133;SDS011;8172;45.018;5.972;2023-05-18T00:25:09;73.57;;;9.07;;
16133;SDS011;8172;45.018;5.972;2023-05-18T00:30:17;66.33;;;9.47;;
16133;SDS011;8172;45.018;5.972;2023-05-18T00:35:27;42.33;;;9.17;;
16133;SDS011;8172;45.018;5.972;2023-05-18T00:40:35;59.47;;;9.63;;
16133;SDS011;8172;45.018;5.972;2023-05-18T00:45:43;24.07;;;8.53;;
16133;SDS011;8172;45.018;5.972;2023-05-18T00:50:52;66.47;;;9.50;;
16133;SDS011;8172;45.018;5.972;2023-05-18T00:56:03;22.70;;;9.03;;
16133;SDS011;8172;45.018;5.972;2023-05-18T01:01:12;24.57;;;9.20;;
16133;SDS011;8172;45.018;5.972;2023-05-18T01:06:22;16.97;;;8.57;;
16133;SDS011;8172;45.018;5.972;2023-05-18T01:11:37;17.67;;;8.07;;
16133;SDS011;8172;45.018;5.972;2023-05-18T01:16:47;23.63;;;8.30;;
16133;SDS011;8172;45.018;5.972;2023-05-18T01:27:04;16.40;;;7.80;;
16133;SDS011;8172;45.018;5.972;2023-05-18T01:32:17;18.97;;;7.40;;
16133;SDS011;8172;45.018;5.972;2023-05-18T01:37:24;17.47;;;7.43;;
16133;SDS011;8172;45.018;5.972;2023-05-18T01:42:33;13.03;;;7.50;;
16133;SDS011;8172;45.018;5.972;2023-05-18T01:47:43;9.03;;;6.67;;
16133;SDS011;8172;45.018;5.972;2023-05-18T01:52:56;17.33;;;7.53;;
16133;SDS011;8172;45.018;5.972;2023-05-18T01:58:03;10.10;;;7.00;;
16133;SDS011;8172;45.018;5.972;2023-05-18T02:03:13;9.43;;;6.70;;
16133;SDS011;8172;45.018;5.972;2023-05-18T02:08:22;8.33;;;5.80;;
16133;SDS011;8172;45.018;5.972;2023-05-18T02:13:30;9.93;;;6.40;;
16133;SDS011;8172;45.018;5.972;2023-05-18T02:18:38;7.60;;;5.83;;
16133;SDS011;8172;45.018;5.972;2023-05-18T02:23:45;7.37;;;5.70;;
16133;SDS011;8172;45.018;5.972;2023-05-18T02:28:53;9.27;;;6.50;;
16133;SDS011;8172;45.018;5.972;2023-05-18T02:34:01;8.33;;;6.33;;
16133;SDS011;8172;45.018;5.972;2023-05-18T02:39:09;10.10;;;6.57;;
16133;SDS011;8172;45.018;5.972;2023-05-18T02:44:18;9.40;;;7.07;;
16133;SDS011;8172;45.018;5.972;2023-05-18T02:49:26;9.93;;;7.07;;
16133;SDS011;8172;45.018;5.972;2023-05-18T02:54:34;9.80;;;7.03;;
16133;SDS011;8172;45.018;5.972;2023-05-18T02:59:44;8.97;;;7.07;;
16133;SDS011;8172;45.018;5.972;2023-05-18T03:04:54;108.27;;;10.23;;
16133;SDS011;8172;45.018;5.972;2023-05-18T03:10:03;52.23;;;8.87;;
16133;SDS011;8172;45.018;5.972;2023-05-18T03:15:12;33.33;;;8.93;;
16133;SDS011;8172;45.018;5.972;2023-05-18T03:20:20;12.00;;;8.33;;
16133;SDS011;8172;45.018;5.972;2023-05-18T03:25:28;10.87;;;7.60;;
16133;SDS011;8172;45.018;5.972;2023-05-18T03:30:38;61.27;;;9.13;;
16133;SDS011;8172;45.018;5.972;2023-05-18T03:35:51;10.10;;;7.83;;
16133;SDS011;8172;45.018;5.972;2023-05-18T03:41:00;8.53;;;7.17;;
16133;SDS011;8172;45.018;5.972;2023-05-18T03:46:08;12.57;;;7.60;;
16133;SDS011;8172;45.018;5.972;2023-05-18T03:51:16;9.80;;;7.43;;
16133;SDS011;8172;45.018;5.972;2023-05-18T03:56:24;10.70;;;7.60;;
16133;SDS011;8172;45.018;5.972;2023-05-18T04:01:35;12.13;;;7.40;;
16133;SDS011;8172;45.018;5.972;2023-05-18T04:06:47;11.37;;;7.83;;
16133;SDS011;8172;45.018;5.972;2023-05-18T04:11:56;12.53;;;8.00;;
16133;SDS011;8172;45.018;5.972;2023-05-18T04:17:04;13.63;;;8.60;;
16133;SDS011;8172;45.018;5.972;2023-05-18T04:22:12;11.77;;;8.47;;
16133;SDS011;8172;45.018;5.972;2023-05-18T04:27:21;13.23;;;8.23;;
16133;SDS011;8172;45.018;5.972;2023-05-18T04:32:29;11.73;;;8.37;;
16133;SDS011;8172;45.018;5.972;2023-05-18T04:37:40;11.70;;;8.20;;
16133;SDS011;8172;45.018;5.972;2023-05-18T04:42:50;10.90;;;7.50;;
16133;SDS011;8172;45.018;5.972;2023-05-18T04:47:59;10.57;;;7.50;;
16133;SDS011;8172;45.018;5.972;2023-05-18T04:53:07;11.07;;;8.40;;
16133;SDS011;8172;45.018;5.972;2023-05-18T04:58:17;14.60;;;8.97;;
16133;SDS011;8172;45.018;5.972;2023-05-18T05:03:26;11.80;;;8.20;;
16133;SDS011;8172;45.018;5.972;2023-05-18T05:08:35;14.43;;;8.23;;
16133;SDS011;8172;45.018;5.972;2023-05-18T05:13:44;10.43;;;7.40;;
16133;SDS011;8172;45.018;5.972;2023-05-18T05:18:52;11.50;;;6.93;;
16133;SDS011;8172;45.018;5.972;2023-05-18T05:24:00;14.70;;;7.77;;
16133;SDS011;8172;45.018;5.972;2023-05-18T05:29:10;13.27;;;7.30;;
16133;SDS011;8172;45.018;5.972;2023-05-18T05:34:18;13.30;;;7.20;;
16133;SDS011;8172;45.018;5.972;2023-05-18T05:39:28;9.63;;;7.17;;
16133;SDS011;8172;45.018;5.972;2023-05-18T05:44:37;10.23;;;6.73;;
16133;SDS011;8172;45.018;5.972;2023-05-18T05:49:46;12.90;;;7.10;;
16133;SDS011;8172;45.018;5.972;2023-05-18T05:54:54;13.03;;;6.77;;
16133;SDS011;8172;45.018;5.972;2023-05-18T06:00:04;10.07;;;6.60;;
16133;SDS011;8172;45.018;5.972;2023-05-18T06:05:15;10.50;;;6.53;;
16133;SDS011;8172;45.018;5.972;2023-05-18T06:10:24;9.87;;;6.83;;
16133;SDS011;8172;45.018;5.972;2023-05-18T06:15:32;10.10;;;6.90;;
16133;SDS011;8172;45.018;5.972;2023-05-18T06:20:40;12.17;;;6.60;;
16133;SDS011;8172;45.018;5.972;2023-05-18T06:25:48;13.63;;;6.63;;
16133;SDS011;8172;45.018;5.972;2023-05-18T06:30:58;10.13;;;6.37;;
16133;SDS011;8172;45.018;5.972;2023-05-18T06:36:07;12.37;;;6.50;;
16133;SDS011;8172;45.018;5.972;2023-05-18T06:41:15;10.63;;;6.80;;
16133;SDS011;8172;45.018;5.972;2023-05-18T06:46:24;11.20;;;7.37;;
16133;SDS011;8172;45.018;5.972;2023-05-18T06:51:35;12.83;;;8.00;;
16133;SDS011;8172;45.018;5.972;2023-05-18T06:56:43;10.37;;;7.30;;
16133;SDS011;8172;45.018;5.972;2023-05-18T07:01:54;12.03;;;7.23;;
16133;SDS011;8172;45.018;5.972;2023-05-18T07:07:06;13.67;;;8.17;;
16133;SDS011;8172;45.018;5.972;2023-05-18T07:12:16;9.30;;;7.60;;
16133;SDS011;8172;45.018;5.972;2023-05-18T07:17:24;10.37;;;6.93;;
16133;SDS011;8172;45.018;5.972;2023-05-18T07:22:33;10.20;;;7.83;;
16133;SDS011;8172;45.018;5.972;2023-05-18T07:27:42;10.13;;;8.30;;
16133;SDS011;8172;45.018;5.972;2023-05-18T07:32:52;13.53;;;8.53;;
16133;SDS011;8172;45.018;5.972;2023-05-18T07:38:02;11.20;;;8.43;;
16133;SDS011;8172;45.018;5.972;2023-05-18T07:43:11;11.00;;;8.07;;
16133;SDS011;8172;45.018;5.972;2023-05-18T07:48:20;11.43;;;8.00;;
16133;SDS011;8172;45.018;5.972;2023-05-18T07:53:28;9.97;;;7.70;;
16133;SDS011;8172;45.018;5.972;2023-05-18T07:58:36;11.80;;;7.57;;
16133;SDS011;8172;45.018;5.972;2023-05-18T08:03:45;10.60;;;7.97;;
16133;SDS011;8172;45.018;5.972;2023-05-18T08:08:54;10.77;;;7.90;;
16133;SDS011;8172;45.018;5.972;2023-05-18T08:14:03;9.60;;;7.23;;
16133;SDS011;8172;45.018;5.972;2023-05-18T08:19:11;7.03;;;6.07;;
16133;SDS011;8172;45.018;5.972;2023-05-18T08:24:21;7.10;;;6.13;;
16133;SDS011;8172;45.018;5.972;2023-05-18T08:29:28;6.87;;;5.83;;
16133;SDS011;8172;45.018;5.972;2023-05-18T08:34:37;8.87;;;6.17;;
16133;SDS011;8172;45.018;5.972;2023-05-18T08:39:50;7.87;;;6.10;;
16133;SDS011;8172;45.018;5.972;2023-05-18T08:50:12;7.40;;;6.07;;
16133;SDS011;8172;45.018;5.972;2023-05-18T08:55:23;7.77;;;6.00;;
16133;SDS011;8172;45.018;5.972;2023-05-18T09:00:33;6.37;;;5.40;;
16133;SDS011;8172;45.018;5.972;2023-05-18T09:05:41;8.03;;;5.47;;
16133;SDS011;8172;45.018;5.972;2023-05-18T09:10:49;7.27;;;5.60;;
16133;SDS011;8172;45.018;5.972;2023-05-18T09:15:57;7.57;;;5.30;;
16133;SDS011;8172;45.018;5.972;2023-05-18T09:21:05;5.53;;;4.90;;
16133;SDS011;8172;45.018;5.972;2023-05-18T09:26:13;7.43;;;4.80;;
16133;SDS011;8172;45.018;5.972;2023-05-18T09:31:21;7.83;;;4.70;;
16133;SDS011;8172;45.018;5.972;2023-05-18T09:36:31;5.00;;;4.50;;
16133;SDS011;8172;45.018;5.972;2023-05-18T09:41:40;5.53;;;4.47;;
16133;SDS011;8172;45.018;5.972;2023-05-18T09:46:53;6.10;;;5.03;;
16133;SDS011;8172;45.018;5.972;2023-05-18T09:52:02;6.93;;;5.33;;
16133;SDS011;8172;45.018;5.972;2023-05-18T09:57:11;6.00;;;5.10;;
16133;SDS011;8172;45.018;5.972;2023-05-18T10:02:20;6.73;;;5.27;;
16133;SDS011;8172;45.018;5.972;2023-05-18T10:07:31;6.20;;;5.60;;
16133;SDS011;8172;45.018;5.972;2023-05-18T10:12:41;7.47;;;5.97;;
16133;SDS011;8172;45.018;5.972;2023-05-18T10:17:54;9.77;;;6.67;;
16133;SDS011;8172;45.018;5.972;2023-05-18T10:23:03;6.63;;;5.50;;
16133;SDS011;8172;45.018;5.972;2023-05-18T10:28:17;6.90;;;5.80;;
16133;SDS011;8172;45.018;5.972;2023-05-18T10:33:30;6.87;;;6.03;;
16133;SDS011;8172;45.018;5.972;2023-05-18T10:38:38;8.33;;;6.00;;
16133;SDS011;8172;45.018;5.972;2023-05-18T10:43:49;5.80;;;5.20;;
16133;SDS011;8172;45.018;5.972;2023-05-18T10:48:58;6.47;;;5.00;;
16133;SDS011;8172;45.018;5.972;2023-05-18T10:54:11;6.97;;;5.57;;
16133;SDS011;8172;45.018;5.972;2023-05-18T10:59:22;7.33;;;6.10;;
16133;SDS011;8172;45.018;5.972;2023-05-18T11:04:34;7.70;;;5.97;;
16133;SDS011;8172;45.018;5.972;2023-05-18T11:09:47;6.47;;;5.30;;
16133;SDS011;8172;45.018;5.972;2023-05-18T11:14:57;6.63;;;5.57;;
16133;SDS011;8172;45.018;5.972;2023-05-18T11:30:28;7.97;;;6.10;;
16133;SDS011;8172;45.018;5.972;2023-05-18T11:40:53;7.67;;;5.77;;
16133;SDS011;8172;45.018;5.972;2023-05-18T11:46:07;7.33;;;5.80;;
16133;SDS011;8172;45.018;5.972;2023-05-18T11:51:20;8.17;;;6.47;;
16133;SDS011;8172;45.018;5.972;2023-05-18T11:56:30;9.83;;;6.10;;
16133;SDS011;8172;45.018;5.972;2023-05-18T12:01:40;8.80;;;5.97;;
16133;SDS011;8172;45.018;5.972;2023-05-18T12:06:49;6.67;;;5.30;;
16133;SDS011;8172;45.018;5.972;2023-05-18T12:12:00;7.03;;;5.90;;
16133;SDS011;8172;45.018;5.972;2023-05-18T12:17:09;6.20;;;5.27;;
16133;SDS011;8172;45.018;5.972;2023-05-18T12:22:18;6.70;;;5.73;;
16133;SDS011;8172;45.018;5.972;2023-05-18T12:27:27;8.13;;;6.40;;
16133;SDS011;8172;45.018;5.972;2023-05-18T12:32:36;9.80;;;7.07;;
16133;SDS011;8172;45.018;5.972;2023-05-18T12:37:44;8.33;;;7.10;;
16133;SDS011;8172;45.018;5.972;2023-05-18T12:48:03;9.60;;;6.77;;
16133;SDS011;8172;45.018;5.972;2023-05-18T12:53:12;8.43;;;6.60;;
16133;SDS011;8172;45.018;5.972;2023-05-18T12:58:21;7.43;;;6.43;;
16133;SDS011;8172;45.018;5.972;2023-05-18T13:03:31;8.77;;;6.73;;
16133;SDS011;8172;45.018;5.972;2023-05-18T13:08:40;7.20;;;6.43;;
16133;SDS011;8172;45.018;5.972;2023-05-18T13:19:00;7.77;;;6.97;;
16133;SDS011;8172;45.018;5.972;2023-05-18T13:24:11;8.80;;;7.60;;
16133;SDS011;8172;45.018;5.972;2023-05-18T13:29:20;8.57;;;7.00;;
16133;SDS011;8172;45.018;5.972;2023-05-18T13:34:32;8.40;;;7.47;;
16133;SDS011;8172;45.018;5.972;2023-05-18T13:39:43;11.50;;;7.70;;
16133;SDS011;8172;45.018;5.972;2023-05-18T13:44:52;7.97;;;7.17;;
16133;SDS011;8172;45.018;5.972;2023-05-18T13:50:02;10.67;;;6.83;;
16133;SDS011;8172;45.018;5.972;2023-05-18T13:55:12;8.70;;;6.83;;
16133;SDS011;8172;45.018;5.972;2023-05-18T14:00:20;11.60;;;8.20;;
16133;SDS011;8172;45.018;5.972;2023-05-18T14:05:28;8.50;;;6.10;;
16133;SDS011;8172;45.018;5.972;2023-05-18T14:10:37;9.40;;;6.80;;
16133;SDS011;8172;45.018;5.972;2023-05-18T14:15:45;6.93;;;5.63;;
16133;SDS011;8172;45.018;5.972;2023-05-18T14:20:54;6.57;;;5.87;;
16133;SDS011;8172;45.018;5.972;2023-05-18T14:26:07;6.73;;;5.60;;
16133;SDS011;8172;45.018;5.972;2023-05-18T14:31:17;6.50;;;5.30;;
16133;SDS011;8172;45.018;5.972;2023-05-18T14:36:31;6.93;;;5.90;;
16133;SDS011;8172;45.018;5.972;2023-05-18T14:41:41;6.73;;;6.07;;
16133;SDS011;8172;45.018;5.972;2023-05-18T14:46:51;10.37;;;6.57;;
16133;SDS011;8172;45.018;5.972;2023-05-18T14:51:57;7.77;;;6.30;;
16133;SDS011;8172;45.018;5.972;2023-05-18T14:57:05;8.40;;;6.33;;
16133;SDS011;8172;45.018;5.972;2023-05-18T15:02:13;7.03;;;6.33;;
16133;SDS011;8172;45.018;5.972;2023-05-18T15:07:23;7.57;;;6.43;;
16133;SDS011;8172;45.018;5.972;2023-05-18T15:12:34;7.87;;;6.90;;
16133;SDS011;8172;45.018;5.972;2023-05-18T15:17:42;9.80;;;6.83;;
16133;SDS011;8172;45.018;5.972;2023-05-18T15:22:50;10.10;;;7.23;;
16133;SDS011;8172;45.018;5.972;2023-05-18T15:27:59;7.50;;;6.73;;
16133;SDS011;8172;45.018;5.972;2023-05-18T15:33:12;8.93;;;6.77;;
16133;SDS011;8172;45.018;5.972;2023-05-18T15:38:21;9.67;;;7.60;;
16133;SDS011;8172;45.018;5.972;2023-05-18T15:43:31;8.57;;;6.77;;
16133;SDS011;8172;45.018;5.972;2023-05-18T15:48:39;7.87;;;6.97;;
16133;SDS011;8172;45.018;5.972;2023-05-18T15:53:48;8.93;;;6.87;;
16133;SDS011;8172;45.018;5.972;2023-05-18T15:58:56;10.73;;;7.73;;
16133;SDS011;8172;45.018;5.972;2023-05-18T16:04:06;9.37;;;7.30;;
16133;SDS011;8172;45.018;5.972;2023-05-18T16:09:14;8.83;;;6.63;;
16133;SDS011;8172;45.018;5.972;2023-05-18T16:14:22;8.40;;;7.50;;
16133;SDS011;8172;45.018;5.972;2023-05-18T16:19:33;250.80;;;15.90;;
16133;SDS011;8172;45.018;5.972;2023-05-18T16:24:44;58.80;;;8.93;;
16133;SDS011;8172;45.018;5.972;2023-05-18T16:29:53;83.67;;;9.90;;
16133;SDS011;8172;45.018;5.972;2023-05-18T16:35:02;18.87;;;7.77;;
16133;SDS011;8172;45.018;5.972;2023-05-18T16:40:10;7.90;;;6.47;;
16133;SDS011;8172;45.018;5.972;2023-05-18T16:45:18;7.23;;;6.53;;
16133;SDS011;8172;45.018;5.972;2023-05-18T16:50:26;7.83;;;6.00;;
16133;SDS011;8172;45.018;5.972;2023-05-18T16:55:34;6.07;;;5.47;;
16133;SDS011;8172;45.018;5.972;2023-05-18T17:00:45;11.87;;;9.13;;
16133;SDS011;8172;45.018;5.972;2023-05-18T17:05:53;8.10;;;7.20;;
16133;SDS011;8172;45.018;5.972;2023-05-18T17:11:01;21.83;;;8.40;;
16133;SDS011;8172;45.018;5.972;2023-05-18T17:16:09;9.70;;;8.10;;
16133;SDS011;8172;45.018;5.972;2023-05-18T17:21:19;14.03;;;7.80;;
16133;SDS011;8172;45.018;5.972;2023-05-18T17:26:30;11.10;;;8.13;;
16133;SDS011;8172;45.018;5.972;2023-05-18T17:31:43;120.13;;;11.83;;
16133;SDS011;8172;45.018;5.972;2023-05-18T17:36:52;83.17;;;12.10;;
16133;SDS011;8172;45.018;5.972;2023-05-18T17:42:00;18.90;;;9.43;;
16133;SDS011;8172;45.018;5.972;2023-05-18T17:47:09;11.43;;;9.30;;
16133;SDS011;8172;45.018;5.972;2023-05-18T17:52:19;12.33;;;10.20;;
16133;SDS011;8172;45.018;5.972;2023-05-18T17:57:27;20.20;;;11.50;;
16133;SDS011;8172;45.018;5.972;2023-05-18T18:02:36;87.80;;;10.97;;
16133;SDS011;8172;45.018;5.972;2023-05-18T18:07:47;88.33;;;11.57;;
16133;SDS011;8172;45.018;5.972;2023-05-18T18:12:55;12.83;;;10.20;;
16133;SDS011;8172;45.018;5.972;2023-05-18T18:18:04;13.70;;;10.27;;
16133;SDS011;8172;45.018;5.972;2023-05-18T18:23:14;11.77;;;9.53;;
16133;SDS011;8172;45.018;5.972;2023-05-18T18:28:23;10.70;;;9.23;;
16133;SDS011;8172;45.018;5.972;2023-05-18T18:33:34;36.87;;;10.43;;
16133;SDS011;8172;45.018;5.972;2023-05-18T18:38:43;11.63;;;9.30;;
16133;SDS011;8172;45.018;5.972;2023-05-18T18:43:52;145.87;;;12.63;;
16133;SDS011;8172;45.018;5.972;2023-05-18T18:49:02;217.37;;;14.57;;
16133;SDS011;8172;45.018;5.972;2023-05-18T18:54:12;86.90;;;10.83;;
16133;SDS011;8172;45.018;5.972;2023-05-18T18:59:21;376.23;;;20.17;;
16133;SDS011;8172;45.018;5.972;2023-05-18T19:04:30;49.73;;;11.53;;
16133;SDS011;8172;45.018;5.972;2023-05-18T19:09:38;26.40;;;11.50;;
16133;SDS011;8172;45.018;5.972;2023-05-18T19:14:49;138.57;;;14.20;;
16133;SDS011;8172;45.018;5.972;2023-05-18T19:19:56;44.80;;;11.43;;
16133;SDS011;8172;45.018;5.972;2023-05-18T19:25:04;36.67;;;9.47;;
16133;SDS011;8172;45.018;5.972;2023-05-18T19:30:13;21.33;;;8.97;;
16133;SDS011;8172;45.018;5.972;2023-05-18T19:35:24;23.67;;;17.17;;
16133;SDS011;8172;45.018;5.972;2023-05-18T19:40:35;13.50;;;9.20;;
16133;SDS011;8172;45.018;5.972;2023-05-18T19:45:43;10.23;;;8.43;;
16133;SDS011;8172;45.018;5.972;2023-05-18T19:50:53;110.53;;;11.77;;
16133;SDS011;8172;45.018;5.972;2023-05-18T19:56:04;64.97;;;11.30;;
16133;SDS011;8172;45.018;5.972;2023-05-18T20:01:14;47.17;;;10.30;;
16133;SDS011;8172;45.018;5.972;2023-05-18T20:06:24;77.30;;;11.47;;
16133;SDS011;8172;45.018;5.972;2023-05-18T20:11:34;13.80;;;8.70;;
16133;SDS011;8172;45.018;5.972;2023-05-18T20:16:41;14.70;;;8.40;;
16133;SDS011;8172;45.018;5.972;2023-05-18T20:21:50;13.93;;;8.07;;
16133;SDS011;8172;45.018;5.972;2023-05-18T20:26:58;7.47;;;6.60;;
16133;SDS011;8172;45.018;5.972;2023-05-18T20:32:09;67.03;;;8.40;;
16133;SDS011;8172;45.018;5.972;2023-05-18T20:37:18;52.40;;;7.50;;
16133;SDS011;8172;45.018;5.972;2023-05-18T20:47:39;29.83;;;7.97;;
16133;SDS011;8172;45.018;5.972;2023-05-18T20:52:47;15.23;;;6.77;;
16133;SDS011;8172;45.018;5.972;2023-05-18T20:57:58;51.97;;;8.87;;
16133;SDS011;8172;45.018;5.972;2023-05-18T21:03:08;156.03;;;10.43;;
16133;SDS011;8172;45.018;5.972;2023-05-18T21:08:18;28.40;;;7.43;;
16133;SDS011;8172;45.018;5.972;2023-05-18T21:13:29;82.17;;;8.17;;
16133;SDS011;8172;45.018;5.972;2023-05-18T21:18:38;41.43;;;7.23;;
16133;SDS011;8172;45.018;5.972;2023-05-18T21:23:45;12.90;;;5.77;;
16133;SDS011;8172;45.018;5.972;2023-05-18T21:28:53;73.97;;;6.80;;
16133;SDS011;8172;45.018;5.972;2023-05-18T21:34:00;98.37;;;7.80;;
16133;SDS011;8172;45.018;5.972;2023-05-18T21:39:08;58.57;;;7.10;;
16133;SDS011;8172;45.018;5.972;2023-05-18T21:44:16;105.33;;;8.40;;
16133;SDS011;8172;45.018;5.972;2023-05-18T21:49:24;70.70;;;8.00;;
16133;SDS011;8172;45.018;5.972;2023-05-18T21:54:32;10.30;;;4.93;;
16133;SDS011;8172;45.018;5.972;2023-05-18T21:59:41;94.23;;;7.60;;
16133;SDS011;8172;45.018;5.972;2023-05-18T22:04:49;32.30;;;6.30;;
16133;SDS011;8172;45.018;5.972;2023-05-18T22:09:57;5.80;;;5.20;;
16133;SDS011;8172;45.018;5.972;2023-05-18T22:15:05;11.13;;;5.53;;
16133;SDS011;8172;45.018;5.972;2023-05-18T22:20:16;7.73;;;5.37;;
16133;SDS011;8172;45.018;5.972;2023-05-18T22:25:26;11.37;;;5.97;;
16133;SDS011;8172;45.018;5.972;2023-05-18T22:30:35;7.17;;;6.20;;
16133;SDS011;8172;45.018;5.972;2023-05-18T22:35:43;11.77;;;6.33;;
16133;SDS011;8172;45.018;5.972;2023-05-18T22:40:54;16.23;;;6.63;;
16133;SDS011;8172;45.018;5.972;2023-05-18T22:46:06;24.33;;;7.50;;
16133;SDS011;8172;45.018;5.972;2023-05-18T22:51:13;13.53;;;7.00;;
16133;SDS011;8172;45.018;5.972;2023-05-18T22:56:21;11.93;;;6.57;;
16133;SDS011;8172;45.018;5.972;2023-05-18T23:01:28;28.70;;;7.63;;
16133;SDS011;8172;45.018;5.972;2023-05-18T23:06:37;16.87;;;7.20;;
16133;SDS011;8172;45.018;5.972;2023-05-18T23:11:45;7.77;;;6.97;;
16133;SDS011;8172;45.018;5.972;2023-05-18T23:16:56;9.40;;;6.60;;
16133;SDS011;8172;45.018;5.972;2023-05-18T23:22:06;14.07;;;7.07;;
16133;SDS011;8172;45.018;5.972;2023-05-18T23:27:13;106.77;;;10.30;;
16133;SDS011;8172;45.018;5.972;2023-05-18T23:32:22;44.20;;;10.10;;
16133;SDS011;8172;45.018;5.972;2023-05-18T23:37:31;10.43;;;8.47;;
16133;SDS011;8172;45.018;5.972;2023-05-18T23:42:42;30.17;;;11.60;;
16133;SDS011;8172;45.018;5.972;2023-05-18T23:47:50;43.57;;;9.73;;
16133;SDS011;8172;45.018;5.972;2023-05-18T23:53:00;8.43;;;6.60;;
16133;SDS011;8172;45.018;5.972;2023-05-18T23:58:09;8.93;;;6.30;;
